Time;durP1;ratioP1;P1;durP2;ratioP2;P2;SDS_P1;SDS_P2;PMS_P1;PMS_P2;Temp;Humidity;BMP_temperature;BMP_pressure;BME280_temperature;BME280_humidity;BME280_pressure;Samples;Min_cycle;Max_cycle;Signal;HPM_P1;HPM_P2
2021/09/10 01:08:02;;;;;;;8.27;3.92;;;;;;;11.78;60.75;99999.88;5007371;28;106030;-65
2021/09/10 01:10:29;;;;;;;7.03;4.05;;;;;;;11.79;61.07;100002.38;5006233;28;106061;-65
2021/09/10 01:12:55;;;;;;;7.03;3.75;;;;;;;11.85;61.53;100006.97;5003576;28;106181;-65
2021/09/10 01:15:22;;;;;;;7.38;4.15;;;;;;;11.93;61.75;100007.91;4985017;28;105962;-65
2021/09/10 01:17:47;;;;;;;6.85;3.90;;;;;;;12.00;62.64;100008.84;4985198;28;106488;-65
2021/09/10 01:20:13;;;;;;;10.85;4.50;;;;;;;12.07;62.51;100009.78;4985974;28;106029;-65
2021/09/10 01:22:38;;;;;;;13.60;5.88;;;;;;;12.12;62.63;100010.03;4985611;28;106111;-65
2021/09/10 01:25:13;;;;;;;11.75;3.80;;;;;;;12.17;63.31;100009.50;4985412;28;105914;-65
2021/09/10 01:27:42;;;;;;;8.50;4.50;;;;;;;12.22;62.42;100007.09;4985031;28;106126;-65
2021/09/10 01:30:08;;;;;;;8.55;5.10;;;;;;;12.23;62.89;100003.41;4985886;28;105818;-65
2021/09/10 01:32:34;;;;;;;10.48;3.97;;;;;;;12.27;62.58;100006.53;4985258;28;106123;-65
2021/09/10 01:34:59;;;;;;;7.43;3.95;;;;;;;12.30;62.85;100008.84;4984869;28;107313;-65
2021/09/10 01:37:25;;;;;;;10.52;3.83;;;;;;;12.32;63.16;100004.16;4985237;28;106626;-65
2021/09/10 01:39:50;;;;;;;7.90;4.05;;;;;;;12.34;62.63;100002.09;4985916;28;106025;-65
2021/09/10 01:42:16;;;;;;;9.35;3.80;;;;;;;12.36;62.53;100002.75;4985284;28;106353;-65
2021/09/10 01:44:41;;;;;;;8.40;4.43;;;;;;;12.36;63.23;100008.09;4984930;28;106049;-65
2021/09/10 01:47:06;;;;;;;6.63;3.88;;;;;;;12.37;63.38;100007.09;4985028;28;106114;-65
2021/09/10 01:49:32;;;;;;;8.20;4.70;;;;;;;12.37;63.49;100004.44;4985800;28;106092;-65
2021/09/10 01:51:57;;;;;;;8.27;4.88;;;;;;;12.36;63.08;100002.75;4985191;28;106143;-65
2021/09/10 01:54:23;;;;;;;7.85;4.25;;;;;;;12.35;63.39;100003.78;4984829;28;105900;-65
2021/09/10 01:56:48;;;;;;;8.10;4.55;;;;;;;12.33;63.15;100009.31;4984706;28;106032;-65
2021/09/10 01:59:14;;;;;;;8.20;3.90;;;;;;;12.31;63.35;100013.97;4985835;28;105910;-65
2021/09/10 02:01:39;;;;;;;7.30;4.30;;;;;;;12.32;63.58;100006.81;4984854;28;106146;-65
2021/09/10 02:04:04;;;;;;;9.13;4.60;;;;;;;12.32;63.50;100004.16;4984091;28;106080;-65
2021/09/10 02:06:30;;;;;;;7.68;3.67;;;;;;;12.32;63.45;100001.47;4984140;28;115204;-65
2021/09/10 02:08:55;;;;;;;6.10;3.88;;;;;;;12.29;64.01;100002.69;4985634;28;105810;-65
2021/09/10 02:11:20;;;;;;;10.70;4.35;;;;;;;12.30;63.64;100000.81;4984779;28;106227;-65
2021/09/10 02:13:46;;;;;;;6.20;4.35;;;;;;;12.30;63.85;100006.16;4984613;28;106607;-65
2021/09/10 02:16:11;;;;;;;7.63;4.30;;;;;;;12.29;63.97;100007.19;4984615;28;106414;-65
2021/09/10 02:18:37;;;;;;;10.88;4.88;;;;;;;12.29;64.02;99993.84;4976500;28;106402;-65
2021/09/10 02:21:03;;;;;;;10.55;3.92;;;;;;;12.30;64.43;100003.50;4971586;28;106217;-65
2021/09/10 02:23:28;;;;;;;9.27;3.90;;;;;;;12.29;64.36;100005.34;4971169;28;105972;-65
2021/09/10 02:25:54;;;;;;;6.43;3.92;;;;;;;12.28;63.56;100006.34;4971014;28;106143;-65
2021/09/10 02:28:19;;;;;;;7.93;4.03;;;;;;;12.27;64.61;99998.53;4970390;28;106040;-65
2021/09/10 02:30:44;;;;;;;8.15;4.60;;;;;;;12.24;63.98;99998.91;4971288;28;106318;-65
2021/09/10 02:33:10;;;;;;;7.68;4.70;;;;;;;12.23;63.99;99997.25;4970916;28;106144;-65
2021/09/10 02:35:35;;;;;;;7.88;4.72;;;;;;;12.21;64.18;99996.63;4971087;28;105974;-65
2021/09/10 02:38:01;;;;;;;6.43;4.15;;;;;;;12.19;64.05;99996.78;4971759;28;105912;-65
2021/09/10 02:40:26;;;;;;;9.80;4.30;;;;;;;12.17;64.50;99991.63;4971146;28;106121;-65
2021/09/10 02:42:52;;;;;;;11.70;4.47;;;;;;;12.14;64.29;99994.69;4970791;28;105977;-65
2021/09/10 02:45:17;;;;;;;12.57;4.45;;;;;;;12.14;64.63;99992.00;4970640;28;106077;-65
2021/09/10 02:47:42;;;;;;;9.07;4.10;;;;;;;12.11;64.79;99995.06;4971472;28;105987;-65
2021/09/10 02:50:08;;;;;;;8.82;4.25;;;;;;;12.09;64.55;99999.72;4970616;28;106280;-64
2021/09/10 02:52:34;;;;;;;9.90;4.20;;;;;;;12.07;65.04;99993.75;4970769;28;105946;-65
2021/09/10 02:54:59;;;;;;;7.65;4.72;;;;;;;12.04;64.58;99993.28;4970470;28;105894;-65
2021/09/10 02:57:25;;;;;;;9.88;4.82;;;;;;;12.00;64.54;99988.34;4971557;28;105808;-65
2021/09/10 02:59:50;;;;;;;7.55;4.45;;;;;;;12.00;64.96;99996.34;4970478;28;106623;-65
2021/09/10 03:02:16;;;;;;;7.03;4.10;;;;;;;11.97;64.91;99998.53;4970387;28;105856;-65
2021/09/10 03:04:45;;;;;;;7.20;4.03;;;;;;;11.95;64.89;99997.91;4970320;28;105855;-65
2021/09/10 03:07:13;;;;;;;6.25;4.75;;;;;;;11.91;65.34;99999.25;4970595;28;106261;-65
2021/09/10 03:09:39;;;;;;;5.75;4.00;;;;;;;11.88;65.16;100003.13;4970320;28;106118;-65
2021/09/10 03:12:04;;;;;;;7.43;4.60;;;;;;;11.86;65.05;100007.81;4969927;28;105922;-65
2021/09/10 03:14:31;;;;;;;9.68;4.43;;;;;;;11.82;64.90;100007.34;4970053;28;105816;-65
2021/09/10 03:16:57;;;;;;;8.57;4.13;;;;;;;11.78;64.96;100002.53;4970719;28;106038;-65
2021/09/10 03:19:24;;;;;;;9.00;4.35;;;;;;;11.75;65.42;100001.06;4970373;28;106240;-65
2021/09/10 03:21:49;;;;;;;11.38;5.03;;;;;;;11.74;65.85;100003.94;4969900;28;106006;-65
2021/09/10 03:24:15;;;;;;;15.02;5.25;;;;;;;11.72;65.63;100001.44;4969785;28;106229;-65
2021/09/10 03:26:41;;;;;;;14.15;4.53;;;;;;;11.72;65.43;100005.97;4970788;28;106009;-65
2021/09/10 03:29:07;;;;;;;8.13;4.80;;;;;;;11.73;65.37;99995.09;4969667;28;106299;-65
2021/09/10 03:31:33;;;;;;;6.60;4.50;;;;;;;11.69;65.85;99996.47;4969011;28;106097;-65
2021/09/10 03:33:58;;;;;;;11.65;4.72;;;;;;;11.68;65.76;99992.16;4969823;28;108195;-65
2021/09/10 03:36:23;;;;;;;9.85;4.18;;;;;;;11.64;65.81;99989.00;4970848;28;105978;-65
2021/09/10 03:38:49;;;;;;;6.90;4.10;;;;;;;11.62;66.56;99987.56;4969872;28;106125;-65
2021/09/10 03:41:14;;;;;;;16.30;5.18;;;;;;;11.64;65.65;99990.84;4969722;28;105982;-65
2021/09/10 03:43:42;;;;;;;9.48;4.50;;;;;;;11.60;66.07;99978.88;4969889;28;106029;-65
2021/09/10 03:46:07;;;;;;;18.27;5.45;;;;;;;11.59;66.22;99983.41;4970482;28;106054;-66
2021/09/10 03:48:33;;;;;;;11.32;5.05;;;;;;;11.57;66.30;99981.94;4969969;28;106293;-65
2021/09/10 03:50:58;;;;;;;10.40;6.55;;;;;;;11.56;66.78;99988.25;4969974;28;105993;-66
2021/09/10 03:53:23;;;;;;;16.95;5.50;;;;;;;11.54;66.47;99980.44;4969553;28;106074;-65
2021/09/10 03:55:49;;;;;;;10.30;4.80;;;;;;;11.52;66.01;99979.78;4970357;28;105923;-66
2021/09/10 03:58:15;;;;;;;10.10;4.20;;;;;;;11.50;66.64;99982.63;4969675;28;106197;-65
2021/09/10 04:00:40;;;;;;;8.93;4.60;;;;;;;11.48;66.73;99979.34;4969490;28;106770;-65
2021/09/10 04:03:06;;;;;;;8.10;4.57;;;;;;;11.46;66.75;99989.34;4969309;28;105930;-65
2021/09/10 04:05:31;;;;;;;8.70;6.35;;;;;;;11.43;67.01;99981.72;4970354;28;105899;-64
2021/09/10 04:07:57;;;;;;;9.38;4.75;;;;;;;11.46;66.79;99980.53;4969090;28;106227;-64
2021/09/10 04:10:22;;;;;;;12.98;5.50;;;;;;;11.48;66.94;99983.81;4968447;28;106830;-64
2021/09/10 04:12:47;;;;;;;15.52;5.18;;;;;;;11.48;67.09;99989.16;4968779;28;106869;-65
2021/09/10 04:15:12;;;;;;;9.55;5.72;;;;;;;11.47;67.11;99988.34;4970249;28;106006;-64
2021/09/10 04:17:38;;;;;;;9.02;4.88;;;;;;;11.48;67.21;99990.00;4969098;28;106209;-64
2021/09/10 04:20:03;;;;;;;7.90;5.07;;;;;;;11.48;67.16;99987.34;4967214;28;106764;-64
2021/09/10 04:22:29;;;;;;;42.20;7.70;;;;;;;11.49;66.96;99991.63;4967104;28;106317;-64
2021/09/10 04:24:54;;;;;;;15.30;5.50;;;;;;;11.49;67.48;99991.63;4967954;28;105933;-64
2021/09/10 04:27:19;;;;;;;7.32;4.90;;;;;;;11.49;67.47;99988.97;4967178;28;106194;-64
2021/09/10 04:29:45;;;;;;;11.23;4.95;;;;;;;11.49;67.47;99991.63;4966616;28;111531;-64
2021/09/10 04:32:10;;;;;;;12.95;5.20;;;;;;;11.50;67.32;99998.66;4966929;28;106499;-64
2021/09/10 04:34:35;;;;;;;24.25;5.85;;;;;;;11.52;67.30;99993.97;4969652;28;106010;-64
2021/09/10 04:37:01;;;;;;;27.65;6.68;;;;;;;11.56;67.06;99999.75;4968815;28;105924;-66
2021/09/10 04:39:26;;;;;;;14.15;5.70;;;;;;;11.60;67.45;99997.56;4969045;28;105909;-64
2021/09/10 04:41:52;;;;;;;15.73;5.38;;;;;;;11.64;67.40;99999.66;4968679;28;105939;-65
2021/09/10 04:44:17;;;;;;;13.10;5.43;;;;;;;11.69;66.98;99997.28;4970044;28;106001;-64
2021/09/10 04:46:42;;;;;;;13.02;5.43;;;;;;;11.75;67.12;99995.72;4968996;28;106203;-64
2021/09/10 04:49:08;;;;;;;12.88;5.10;;;;;;;11.81;67.15;100000.34;4968704;28;105776;-64
2021/09/10 04:51:33;;;;;;;7.38;5.53;;;;;;;11.88;67.33;100002.28;4968669;28;105849;-64
2021/09/10 04:54:00;;;;;;;9.27;6.35;;;;;;;11.96;67.26;100008.41;4968568;28;106949;-63
2021/09/10 04:56:25;;;;;;;11.73;5.95;;;;;;;12.04;67.26;100003.97;4967735;28;105891;-64
2021/09/10 04:58:51;;;;;;;17.90;5.95;;;;;;;12.12;67.35;100004.69;4968203;28;106023;-65
2021/09/10 05:01:16;;;;;;;15.98;5.88;;;;;;;12.22;67.40;99999.09;4967860;28;106242;-64
2021/09/10 05:03:42;;;;;;;11.98;5.68;;;;;;;12.33;67.25;100003.16;4969264;28;105884;-64
2021/09/10 05:06:07;;;;;;;11.70;5.50;;;;;;;12.44;66.86;99999.13;4968265;28;106014;-64
2021/09/10 05:08:32;;;;;;;10.50;5.50;;;;;;;12.51;67.09;100011.56;4967935;28;106725;-64
2021/09/10 05:10:58;;;;;;;10.65;6.28;;;;;;;12.58;66.94;100003.63;4968238;28;106043;-65
2021/09/10 05:13:23;;;;;;;11.60;6.50;;;;;;;12.69;67.13;100010.34;4965082;28;106143;-65
2021/09/10 05:15:48;;;;;;;13.98;5.88;;;;;;;12.81;66.97;100019.53;4947577;28;106181;-64
2021/09/10 05:18:14;;;;;;;10.23;5.90;;;;;;;12.88;66.06;100016.91;4947093;28;106041;-64
2021/09/10 05:20:40;;;;;;;12.95;5.75;;;;;;;13.00;66.05;100014.59;4946712;28;106134;-64
2021/09/10 05:23:05;;;;;;;12.38;6.13;;;;;;;13.07;65.79;100026.16;4947502;28;105874;-64
2021/09/10 05:25:31;;;;;;;18.63;6.88;;;;;;;13.11;65.41;100023.91;4946403;28;106234;-65
2021/09/10 05:27:56;;;;;;;12.95;5.53;;;;;;;13.18;65.74;100022.16;4946643;28;106540;-64
2021/09/10 05:30:21;;;;;;;12.00;5.88;;;;;;;13.31;66.02;100024.13;4946142;28;106314;-64
2021/09/10 05:32:47;;;;;;;21.02;6.00;;;;;;;13.42;65.55;100020.94;4947399;28;105903;-64
2021/09/10 05:35:14;;;;;;;13.98;5.38;;;;;;;13.51;65.68;100014.44;4946930;28;106172;-65
2021/09/10 05:37:39;;;;;;;11.95;5.38;;;;;;;13.65;65.13;100020.72;4946421;28;107041;-64
2021/09/10 05:40:05;;;;;;;10.00;4.85;;;;;;;13.77;65.02;100025.56;4944808;28;106614;-65
2021/09/10 05:42:30;;;;;;;14.35;5.25;;;;;;;13.87;64.94;100021.50;4946908;28;106079;-64
2021/09/10 05:44:56;;;;;;;14.60;5.63;;;;;;;14.00;64.86;100031.47;4946184;28;106204;-64
2021/09/10 05:47:21;;;;;;;16.48;5.15;;;;;;;14.14;64.55;100035.03;4945611;28;106066;-64
2021/09/10 05:49:46;;;;;;;14.32;5.88;;;;;;;14.29;64.36;100039.47;4945856;28;105975;-66
2021/09/10 05:52:12;;;;;;;10.85;5.60;;;;;;;14.44;63.98;100033.97;4946541;28;106521;-65
2021/09/10 05:54:37;;;;;;;13.93;4.95;;;;;;;14.56;63.82;100032.38;4949411;28;106045;-65
2021/09/10 05:57:04;;;;;;;13.40;5.20;;;;;;;14.72;63.87;100028.50;4949854;28;106063;-64
2021/09/10 05:59:29;;;;;;;9.82;4.78;;;;;;;14.91;63.50;100026.91;4949736;28;106034;-65
2021/09/10 06:01:55;;;;;;;16.55;4.75;;;;;;;15.12;63.24;100025.09;4950594;28;106066;-65
2021/09/10 06:04:20;;;;;;;7.57;4.60;;;;;;;15.29;63.00;100028.22;4949932;28;106142;-64
2021/09/10 06:06:45;;;;;;;7.50;4.82;;;;;;;15.48;62.70;100032.78;4949604;28;106009;-65
2021/09/10 06:09:10;;;;;;;7.63;3.88;;;;;;;15.61;61.56;100031.97;4949325;28;105950;-67
2021/09/10 06:11:36;;;;;;;10.57;4.70;;;;;;;15.67;61.12;100035.69;4950729;28;106496;-66
2021/09/10 06:14:01;;;;;;;9.02;4.85;;;;;;;15.73;60.97;100032.16;4948830;28;106401;-66
2021/09/10 06:16:27;;;;;;;13.35;5.28;;;;;;;15.85;60.96;100027.00;4949589;28;106726;-67
2021/09/10 06:18:52;;;;;;;12.65;5.78;;;;;;;15.99;60.72;100035.88;4966895;28;106171;-66
2021/09/10 06:21:17;;;;;;;12.13;4.88;;;;;;;16.12;60.18;100038.53;4969991;28;106024;-66
2021/09/10 06:23:43;;;;;;;10.15;4.35;;;;;;;16.18;59.86;100032.31;4969427;28;106605;-66
2021/09/10 06:26:08;;;;;;;7.57;4.55;;;;;;;16.28;60.09;100031.03;4968499;28;106134;-66
2021/09/10 06:28:34;;;;;;;9.23;4.00;;;;;;;16.39;59.67;100033.09;4968610;28;106059;-66
2021/09/10 06:31:00;;;;;;;11.98;4.00;;;;;;;16.50;59.33;100032.41;4969724;28;106468;-66
2021/09/10 06:33:26;;;;;;;12.65;4.47;;;;;;;16.65;59.29;100034.00;4968726;28;106161;-65
2021/09/10 06:35:51;;;;;;;11.07;4.80;;;;;;;16.80;58.81;100034.56;4968559;28;106345;-66
2021/09/10 06:38:17;;;;;;;13.40;4.18;;;;;;;17.03;58.83;100042.13;4968272;28;113695;-66
2021/09/10 06:40:42;;;;;;;9.27;3.70;;;;;;;17.30;58.66;100038.41;4969633;28;106297;-65
2021/09/10 06:43:07;;;;;;;16.50;4.97;;;;;;;17.54;57.83;100045.69;4969151;28;106241;-65
2021/09/10 06:45:33;;;;;;;10.73;5.40;;;;;;;17.71;57.08;100050.50;4968709;28;106086;-66
2021/09/10 06:47:59;;;;;;;14.32;3.80;;;;;;;17.86;57.07;100040.22;4968443;28;106085;-66
2021/09/10 06:50:24;;;;;;;7.28;3.55;;;;;;;18.02;56.41;100046.13;4969133;28;106450;-65
2021/09/10 06:52:50;;;;;;;8.52;4.72;;;;;;;18.15;56.08;100048.69;4968685;28;105969;-66
2021/09/10 06:55:15;;;;;;;12.50;5.10;;;;;;;18.44;56.13;100054.38;4968606;28;106074;-65
2021/09/10 06:57:40;;;;;;;7.03;3.83;;;;;;;18.76;55.88;100046.09;4967971;28;106245;-65
2021/09/10 07:00:07;;;;;;;10.55;3.60;;;;;;;18.99;55.28;100050.78;4968830;28;106101;-63
2021/09/10 07:02:32;;;;;;;15.20;3.88;;;;;;;19.09;54.09;100048.34;4968094;28;106163;-64
2021/09/10 07:04:57;;;;;;;8.38;3.78;;;;;;;19.30;54.42;100046.19;4968216;28;106047;-64
2021/09/10 07:07:23;;;;;;;8.23;3.95;;;;;;;19.53;53.79;100048.09;4967630;28;107747;-64
2021/09/10 07:09:48;;;;;;;14.32;4.55;;;;;;;19.77;53.78;100048.13;4969197;28;106088;-63
2021/09/10 07:12:14;;;;;;;7.90;3.22;;;;;;;19.98;52.95;100056.72;4968684;28;106335;-64
2021/09/10 07:14:39;;;;;;;11.65;4.03;;;;;;;20.06;52.20;100054.47;4966186;28;107764;-65
2021/09/10 07:17:04;;;;;;;14.85;4.03;;;;;;;20.24;52.63;100050.84;4968346;28;106073;-64
2021/09/10 07:19:30;;;;;;;5.63;3.80;;;;;;;20.43;51.77;100043.34;4966552;28;106820;-64
2021/09/10 07:21:55;;;;;;;8.55;3.60;;;;;;;20.65;51.49;100050.03;4963549;28;106219;-64
2021/09/10 07:24:20;;;;;;;4.88;2.58;;;;;;;20.82;50.96;100048.22;4967421;28;106472;-64
2021/09/10 07:26:46;;;;;;;8.20;3.40;;;;;;;21.02;50.61;100049.66;4968977;28;106256;-65
2021/09/10 07:29:12;;;;;;;8.10;3.75;;;;;;;21.22;50.22;100050.03;4969304;28;106259;-64
2021/09/10 07:31:38;;;;;;;9.05;3.30;;;;;;;21.39;49.85;100046.50;4978794;28;106393;-64
2021/09/10 07:34:05;;;;;;;7.22;3.67;;;;;;;21.56;49.05;100050.06;4977694;28;106401;-63
2021/09/10 07:36:30;;;;;;;10.35;3.45;;;;;;;21.55;48.45;100048.44;4973937;28;106292;-64
2021/09/10 07:38:56;;;;;;;6.13;3.58;;;;;;;21.63;48.76;100049.91;4969623;28;106310;-62
2021/09/10 07:41:21;;;;;;;8.88;3.47;;;;;;;21.89;48.67;100053.81;4969154;28;106163;-64
2021/09/10 07:43:47;;;;;;;9.80;3.63;;;;;;;22.14;48.18;100047.13;4968987;28;106423;-64
2021/09/10 07:46:13;;;;;;;6.22;3.17;;;;;;;22.38;47.33;100052.38;4968176;28;107891;-64
2021/09/10 07:48:39;;;;;;;5.72;3.30;;;;;;;22.63;47.18;100051.84;4969364;28;106259;-65
2021/09/10 07:51:04;;;;;;;9.30;3.20;;;;;;;22.90;46.68;100057.28;4969394;28;106436;-65
2021/09/10 07:53:30;;;;;;;7.93;2.78;;;;;;;23.11;46.02;100050.19;4968871;28;105893;-65
2021/09/10 07:55:55;;;;;;;7.43;3.35;;;;;;;23.25;45.63;100045.19;4968734;28;105986;-65
2021/09/10 07:58:20;;;;;;;7.20;3.17;;;;;;;23.49;45.48;100047.53;4968912;28;105939;-64
2021/09/10 08:00:46;;;;;;;5.50;2.72;;;;;;;23.83;44.51;100052.69;4969201;28;106213;-64
2021/09/10 08:03:12;;;;;;;9.77;3.15;;;;;;;24.05;44.27;100054.50;4968977;28;106550;-64
2021/09/10 08:05:37;;;;;;;7.20;2.75;;;;;;;24.14;43.46;100055.63;4967487;28;105930;-64
2021/09/10 08:08:03;;;;;;;12.35;3.35;;;;;;;24.35;43.53;100053.81;4968819;28;105896;-64
2021/09/10 08:10:29;;;;;;;8.27;2.70;;;;;;;24.65;42.81;100057.78;4968127;28;106261;-65
2021/09/10 08:12:54;;;;;;;12.82;3.45;;;;;;;24.78;42.06;100061.88;4967479;28;105914;-65
2021/09/10 08:15:21;;;;;;;8.40;3.28;;;;;;;24.89;42.46;100065.47;4967697;28;105929;-65
2021/09/10 08:17:46;;;;;;;9.82;2.83;;;;;;;25.09;41.96;100067.41;4968762;28;106100;-66
2021/09/10 08:20:13;;;;;;;10.77;2.85;;;;;;;25.27;41.30;100058.69;4968491;28;106378;-66
2021/09/10 08:22:38;;;;;;;10.38;2.83;;;;;;;25.53;41.06;100060.66;4967957;28;106168;-65
2021/09/10 08:25:06;;;;;;;9.15;2.92;;;;;;;25.97;40.28;100071.81;4968457;28;106138;-65
2021/09/10 08:27:32;;;;;;;5.97;2.88;;;;;;;26.24;39.79;100072.59;4968425;28;106356;-63
2021/09/10 08:29:58;;;;;;;10.60;3.10;;;;;;;26.54;39.38;100068.91;4968580;28;106036;-64
2021/09/10 08:32:25;;;;;;;8.73;2.75;;;;;;;27.03;38.80;100070.84;4968056;28;105981;-64
2021/09/10 08:34:51;;;;;;;12.05;2.90;;;;;;;27.54;37.97;100063.41;4967879;28;105994;-66
2021/09/10 08:37:16;;;;;;;7.78;2.78;;;;;;;28.27;37.16;100067.09;4966279;28;106047;-65
2021/09/10 08:39:42;;;;;;;11.02;3.90;;;;;;;28.92;35.98;100070.38;4968746;28;105853;-65
2021/09/10 08:42:08;;;;;;;8.50;3.10;;;;;;;30.45;34.17;100065.31;4967880;28;106030;-64
2021/09/10 08:44:34;;;;;;;13.05;2.80;;;;;;;32.94;31.50;100069.72;4967666;28;106061;-66
2021/09/10 08:46:59;;;;;;;4.78;2.05;;;;;;;34.79;26.63;100070.75;4967138;28;106571;-66
2021/09/10 08:49:25;;;;;;;6.47;2.30;;;;;;;35.80;23.70;100091.03;4968178;28;106433;-67
2021/09/10 08:51:50;;;;;;;5.18;2.13;;;;;;;36.27;21.57;100079.56;4968172;28;106224;-67
2021/09/10 08:54:17;;;;;;;4.78;2.10;;;;;;;37.20;20.78;100075.25;4967591;28;106150;-65
2021/09/10 08:56:43;;;;;;;3.75;1.85;;;;;;;38.52;18.41;100076.22;4968914;28;106774;-65
2021/09/10 08:59:10;;;;;;;8.15;2.13;;;;;;;39.08;17.78;100084.22;4968118;28;105996;-64
2021/09/10 09:01:45;;;;;;;5.20;1.90;;;;;;;39.79;17.15;100090.75;4967707;28;105913;-66
2021/09/10 09:04:12;;;;;;;5.13;2.28;;;;;;;40.26;16.48;100086.75;4947583;28;106381;-65
2021/09/10 09:06:37;;;;;;;6.93;1.95;;;;;;;40.68;15.54;100102.53;4946809;28;106056;-66
2021/09/10 09:09:03;;;;;;;7.60;1.98;;;;;;;41.17;14.69;100084.00;4947108;28;106331;-65
2021/09/10 09:11:29;;;;;;;3.97;2.20;;;;;;;41.29;14.67;100102.50;4946060;28;106584;-67
2021/09/10 09:13:56;;;;;;;3.80;1.80;;;;;;;41.67;14.12;100085.75;4945753;28;106086;-65
2021/09/10 09:16:28;;;;;;;5.03;1.80;;;;;;;41.73;13.82;100075.81;4947626;28;106415;-65
2021/09/10 09:19:03;;;;;;;4.03;2.03;;;;;;;43.03;13.28;100099.84;4946338;28;106352;-65
2021/09/10 09:21:31;;;;;;;7.93;2.08;;;;;;;43.24;13.08;100082.34;4946690;28;106041;-64
2021/09/10 09:24:14;;;;;;;6.63;2.38;;;;;;;43.52;12.19;100088.44;4946371;28;106184;-67
2021/09/10 09:26:44;;;;;;;7.70;2.28;;;;;;;44.48;12.03;100083.19;4946294;28;106164;-66
2021/09/10 09:29:18;;;;;;;5.70;2.20;;;;;;;45.03;11.39;100077.00;4949335;28;106225;-65
2021/09/10 09:31:58;;;;;;;4.90;1.83;;;;;;;45.66;11.24;100076.22;4950157;28;106147;-66
2021/09/10 09:34:48;;;;;;;3.83;2.05;;;;;;;46.58;10.33;100066.50;4950492;28;106081;-66
2021/09/10 09:37:15;;;;;;;6.85;2.03;;;;;;;47.43;10.55;100065.78;4950909;28;106115;-67
2021/09/10 09:39:52;;;;;;;7.82;2.50;;;;;;;47.33;10.03;100075.19;4949927;28;106684;-65
2021/09/10 09:42:25;;;;;;;4.35;1.90;;;;;;;46.56;9.85;100066.09;4950249;28;105979;-67
2021/09/10 09:45:09;;;;;;;7.85;3.40;;;;;;;45.74;9.90;100060.88;4949967;28;106055;-66
2021/09/10 09:47:35;;;;;;;5.28;2.72;;;;;;;46.16;10.27;100065.75;4950701;28;106485;-67
2021/09/10 09:50:13;;;;;;;3.60;1.92;;;;;;;46.84;9.91;100055.75;4965308;28;106154;-66
2021/09/10 09:52:38;;;;;;;5.88;1.85;;;;;;;47.30;9.71;100076.84;4969216;28;106469;-65
2021/09/10 09:55:06;;;;;;;4.60;1.90;;;;;;;47.57;9.33;100079.69;4969594;28;105974;-66
2021/09/10 09:57:33;;;;;;;3.50;1.53;;;;;;;47.93;9.06;100067.00;4970366;28;106449;-66
2021/09/10 10:00:02;;;;;;;4.70;1.92;;;;;;;48.28;9.13;100071.22;4969678;28;106732;-66
2021/09/10 10:02:28;;;;;;;5.18;1.77;;;;;;;48.99;8.60;100075.81;4969008;28;105943;-65
2021/09/10 10:04:56;;;;;;;4.82;1.90;;;;;;;49.10;8.55;100067.88;4969357;28;106041;-67
2021/09/10 10:07:22;;;;;;;7.03;2.17;;;;;;;49.65;8.25;100072.31;4969992;28;106648;-68
2021/09/10 10:09:49;;;;;;;3.50;1.65;;;;;;;50.13;8.27;100068.63;4966994;28;106636;-66
2021/09/10 10:12:19;;;;;;;4.78;1.50;;;;;;;49.89;8.10;100070.84;4964144;28;106160;-67
2021/09/10 10:14:45;;;;;;;3.00;1.73;;;;;;;49.55;7.75;100063.59;4969712;28;106084;-65
2021/09/10 10:17:32;;;;;;;6.00;1.83;;;;;;;49.36;7.89;100062.47;4971151;28;106196;-64
2021/09/10 10:19:58;;;;;;;4.32;1.60;;;;;;;49.74;7.66;100063.97;4970913;28;106156;-67
2021/09/10 10:22:40;;;;;;;5.47;2.10;;;;;;;49.27;7.92;100065.91;4970494;28;106647;-67
2021/09/10 10:25:07;;;;;;;3.85;1.77;;;;;;;49.26;7.82;100064.31;4969127;28;107395;-67
2021/09/10 10:27:43;;;;;;;6.07;2.78;;;;;;;49.50;7.69;100064.16;4971011;28;105886;-68
2021/09/10 10:30:15;;;;;;;3.67;1.80;;;;;;;50.22;7.28;100064.34;4970189;28;106205;-67
2021/09/10 10:32:42;;;;;;;5.32;1.70;;;;;;;50.83;7.20;100058.97;4969639;28;105944;-67
2021/09/10 10:35:24;;;;;;;3.33;1.70;;;;;;;50.99;7.34;100061.69;4967835;28;105947;-67
2021/09/10 10:38:01;;;;;;;3.13;1.70;;;;;;;51.31;6.94;100068.41;4968413;28;106402;-66
2021/09/10 10:40:33;;;;;;;5.93;1.80;;;;;;;51.25;7.23;100053.19;4967354;28;105939;-65
2021/09/10 10:43:03;;;;;;;4.18;1.77;;;;;;;51.06;7.13;100061.50;4967680;28;106556;-65
2021/09/10 10:45:40;;;;;;;4.57;1.98;;;;;;;51.11;6.84;100058.09;4967565;28;106568;-65
2021/09/10 10:48:33;;;;;;;6.55;1.60;;;;;;;50.34;7.14;100052.28;4969098;28;106055;-66
2021/09/10 10:51:02;;;;;;;3.08;1.52;;;;;;;50.80;6.62;100046.50;4970527;28;106483;-65
2021/09/10 10:53:48;;;;;;;3.80;1.77;;;;;;;50.97;6.75;100050.03;4969861;28;105807;-65
2021/09/10 10:56:25;;;;;;;7.07;1.90;;;;;;;51.17;6.68;100049.00;4969746;28;105810;-64
2021/09/10 10:59:12;;;;;;;5.33;1.60;;;;;;;51.48;6.59;100054.09;4970390;28;106110;-66
2021/09/10 11:02:20;;;;;;;6.20;2.03;;;;;;;52.00;6.59;100049.88;4970409;28;105940;-67
2021/09/10 11:04:50;;;;;;;4.57;1.73;;;;;;;52.22;6.42;100049.13;4969835;28;106745;-65
2021/09/10 11:07:23;;;;;;;6.82;2.10;;;;;;;52.20;5.95;100032.53;4969217;28;106381;-65
2021/09/10 11:10:18;;;;;;;5.13;2.05;;;;;;;53.52;5.11;100049.75;4970502;28;106021;-66
2021/09/10 11:12:47;;;;;;;3.03;1.58;;;;;;;52.70;5.52;100043.25;4968185;28;105731;-66
2021/09/10 11:15:15;;;;;;;3.58;1.60;;;;;;;51.66;5.97;100045.75;4969269;28;106711;-67
2021/09/10 11:17:42;;;;;;;3.63;1.90;;;;;;;51.85;6.39;100038.22;4969708;28;106253;-66
2021/09/10 11:20:08;;;;;;;5.78;1.80;;;;;;;51.87;6.36;100037.78;4970146;28;106337;-67
2021/09/10 11:22:46;;;;;;;4.95;1.35;;;;;;;51.70;6.03;100037.13;4969847;28;106163;-66
2021/09/10 11:25:12;;;;;;;6.57;1.88;;;;;;;52.35;5.89;100035.63;4968564;28;107038;-67
2021/09/10 11:27:40;;;;;;;3.63;1.58;;;;;;;51.63;5.56;100038.16;4969345;28;105955;-66
2021/09/10 11:30:07;;;;;;;;;;;;;;;51.68;5.48;100039.66;4970081;28;106184;-67
2021/09/10 11:32:33;;;;;;;3.35;1.48;;;;;;;51.15;5.68;100037.34;4969619;28;105841;-67
2021/09/10 11:34:58;;;;;;;7.22;2.80;;;;;;;50.65;5.88;100031.13;4969375;28;105752;-66
2021/09/10 11:37:31;;;;;;;3.25;1.80;;;;;;;50.49;5.84;100043.38;4969239;28;105757;-68
2021/09/10 11:39:57;;;;;;;3.33;1.77;;;;;;;50.77;5.60;100036.88;4970124;28;106246;-66
2021/09/10 11:42:38;;;;;;;3.40;1.63;;;;;;;51.05;5.69;100042.13;4969131;28;106248;-66
2021/09/10 11:45:09;;;;;;;3.25;1.80;;;;;;;51.01;5.60;100038.56;4968597;28;105923;-66
2021/09/10 11:47:36;;;;;;;7.00;2.30;;;;;;;51.69;6.12;100030.66;4968767;28;106285;-65
2021/09/10 11:50:04;;;;;;;3.67;1.63;;;;;;;52.66;5.36;100026.38;4969255;28;105953;-66
2021/09/10 11:52:33;;;;;;;;;;;;;;;52.66;5.78;100026.38;4968771;28;106176;-66
2021/09/10 11:55:12;;;;;;;5.60;1.70;;;;;;;52.33;5.94;100015.41;4969040;28;105822;-67
2021/09/10 11:57:38;;;;;;;;;;;;;;;52.99;5.47;100033.59;4969160;28;106300;-65
2021/09/10 12:00:09;;;;;;;4.55;1.65;;;;;;;52.80;5.15;100007.97;4969480;28;106749;-66
2021/09/10 12:02:34;;;;;;;7.13;1.75;;;;;;;53.52;5.19;100016.41;4968266;28;106262;-64
2021/09/10 12:05:01;;;;;;;3.28;1.25;;;;;;;53.42;4.51;100018.44;4968895;28;106552;-66
2021/09/10 12:07:29;;;;;;;5.97;1.73;;;;;;;52.50;5.25;100015.22;4968449;28;106373;-69
2021/09/10 12:09:55;;;;;;;6.20;1.80;;;;;;;51.33;5.67;100012.00;4968975;28;105924;-66
2021/09/10 12:12:23;;;;;;;8.77;1.80;;;;;;;51.33;5.99;100020.50;4968309;28;105803;-67
2021/09/10 12:15:02;;;;;;;5.57;1.70;;;;;;;50.97;5.55;100001.81;4968895;28;105943;-67
2021/09/10 12:17:38;;;;;;;3.88;1.85;;;;;;;51.20;5.82;99999.91;4968261;28;105982;-65
2021/09/10 12:20:16;;;;;;;5.72;1.48;;;;;;;51.78;5.45;100002.41;4969535;28;105879;-64
2021/09/10 12:22:48;;;;;;;3.43;1.50;;;;;;;50.49;5.50;100004.50;4968448;28;106183;-66
2021/09/10 12:25:16;;;;;;;4.88;1.75;;;;;;;50.23;5.44;99998.75;4968283;28;105903;-65
2021/09/10 12:27:42;;;;;;;6.90;1.77;;;;;;;49.93;5.92;99997.94;4968661;28;106052;-67